Tiempo atmosférico en la estación meteorológica de Bossòst, Lleida (725 m.)



Fecha
DESCASC
Temp. máxima en grados centígrados (hora)
DESCASC
Temp. mínima en grados centígrados (hora)
DESCASC
Temp. media en grados centígrados
DESCASC
Racha de viento máxima en m/sg (hora)
DESCASC
Velocidad máxima media en intervalos de 10 minutos(hora)
DESCASC
Precipitaciones diarias en mm
DESCASC
Precipitaciones de 00:00 a 06:00 en mm
DESCASC
Precipitaciones de 06:00 a 12:00 en mm
DESCASC
Precipitaciones de 12:00 a 18:00 en mm
DESCASC
Precipitaciones de 18:00 a 24:00 en mm
DESCASC
28-02-2021 15 (14:30) -0.1 (07:50) 7.4 12.5 (14:20) 8.06 (14:10) 0 0 0 0 0
27-02-2021 13.1 (14:30) 1.4 (07:30) 7.3 7.5 (15:00) 4.72 (15:00) 0 0 0 0 0
26-02-2021 15.4 (14:00) 2 (06:50) 8.7 6.94 (14:20) 3.89 (14:20) 0 0 0 0 0
25-02-2021 18.3 (14:10) 1.9 (00:00) 10.1 7.22 (16:10) 4.17 (15:50) 0 0 0 0 0
24-02-2021 21.7 (13:40) 4.6 (00:00) 13.2 12.22 (11:50) 6.94 (12:00) 0 0 0 0 0
23-02-2021 18.3 (14:30) 3.2 (00:00) 10.7 14.44 (12:30) 8.06 (12:40) 0 0 0 0 0
22-02-2021 10.7 (00:00) 6.6 (00:00) 8.6 6.67 (02:10) 3.61 (02:10) 13.8 1.6 8.8 3.2 0.2
21-02-2021 20 (14:10) 10.7 (00:00) 15.3 19.44 (19:00) 8.89 (08:10) 0.4 0 0 0 0.4
20-02-2021 20.1 (12:40) 12.5 (00:00) 16.3 18.33 (13:20) 9.44 (11:10) 0 0 0 0 0
19-02-2021 19.3 (13:30) 1.5 (00:00) 10.4 16.39 (14:20) 8.33 (13:50) 0 0 0 0 0
18-02-2021 20.1 (14:20) 4.1 (00:00) 12.1 15.28 (12:50) 8.61 (07:50) 0 0 0 0 0
17-02-2021 19.3 (14:50) 1.9 (00:00) 10.6 8.33 (13:30) 4.17 (15:20) 0 0 0 0 0
16-02-2021 22.3 (14:00) 5.2 (00:00) 13.7 12.5 (12:10) 6.11 (12:10) 0 0 0 0 0
15-02-2021 18.6 (15:00) 2.9 (00:00) 10.8 7.5 (06:30) 3.89 (06:30) 0 0 0 0 0
14-02-2021 17.5 (14:40) -0.7 (-00:0) 8.4 10.28 (18:20) 6.39 (18:10) 0 0 0 0 0
13-02-2021 12 (13:40) 3.7 (00:00) 7.9 6.94 (14:10) 3.89 (14:10) 0.2 0.2 0 0 0
12-02-2021 11.1 (12:00) 2 (00:00) 6.6 6.67 (12:00) 3.33 (12:00) 9.6 0 0 5 4.6
11-02-2021 15.1 (15:40) -0.4 (00:00) 7.4 6.94 (07:30) 5 (07:30) 0 0 0 0 0
10-02-2021 5.7 (15:50) -0.6 (-00:0) 2.5 5.28 (23:59) 3.89 (23:50) 2.4 0 0.8 1.6 0
09-02-2021 12.5 (14:40) -0.3 (00:00) 6.1 14.17 (16:40) 9.72 (16:40) 0.4 0 0 0 0.4
08-02-2021 7.4 (12:50) 0.6 (00:00) 4 6.39 (14:30) 3.61 (08:10) 8.2 0 0 8 0.2
07-02-2021 10.5 (14:30) 0.3 (00:00) 5.4 7.5 (01:20) 3.06 (00:40) 0.8 0.8 0 0 0
06-02-2021 15.5 (00:30) 5.1 (00:00) 10.3 24.17 (01:50) 10.83 (01:50) 3.6 0 0.4 0 3.2
05-02-2021 20.2 (14:20) 5.9 (00:00) 13.1 20.56 (15:20) 9.72 (14:40) 0 0 0 0 0
04-02-2021 15.9 (14:30) 4.8 (00:00) 10.3 9.44 (04:40) 6.39 (04:40) 0 0 0 0 0
03-02-2021 18.3 (14:10) 4.6 (00:00) 11.4 12.22 (00:20) 7.22 (04:10) 0 0 0 0 0
02-02-2021 15.9 (14:50) 4.3 (00:00) 10.1 12.78 (23:50) 6.67 (23:59) 1.4 1.4 0 0 0
01-02-2021 9.3 (14:00) 4.8 (00:00) 7.1 6.11 (02:00) 3.89 (02:00) 19 9 4.2 2.6 3.2

Gráficas

Temp. máximas Temp. mínimas Temp. medias Precipitaciones Rachas de viento máximas Velocidades máximas media en intervalos de 10 minutos

Datos horarios

Fecha y hora oficial Temperatura (ºC) Velocidad del viento (km/h) Dirección del viento Racha (km/h) Dirección de racha Precipitación (mm) Presión (hPa) Tendencia (hPa) Humedad (%)
2021-03-02 23:00:00 10.6 9 Sudoeste 18 Sudoeste 0 -- -- 57
2021-03-02 22:00:00 12.2 11 Sudoeste 20 Sudoeste 0 -- -- 47
2021-03-02 21:00:00 10.4 8 Sur 12 Sudoeste 0 -- -- 56
2021-03-02 20:00:00 11.2 10 Sudoeste 15 Sudoeste 0 -- -- 52
2021-03-02 19:00:00 11.6 2 Sur 9 Nordeste 0 -- -- 61
2021-03-02 18:00:00 14 3 Nordeste 17 Oeste 0 -- -- 54
2021-03-02 17:00:00 16.1 11 Oeste 26 Sudoeste 0 -- -- 33
2021-03-02 16:00:00 16.4 14 Sudoeste 32 Sudoeste 0 -- -- 33
2021-03-02 15:00:00 16.6 22 Sudoeste 35 Sudoeste 0 -- -- 30
2021-03-02 14:00:00 16.6 22 Sudoeste 41 Sudoeste 0 -- -- 29
2021-03-02 13:00:00 16.6 20 Sudoeste 40 Sudoeste 0 -- -- 27
2021-03-02 12:00:00 16 17 Sudoeste 38 Oeste 0 -- -- 30
2021-03-02 11:00:00 13.6 19 Sudoeste 40 Sudoeste 0 -- -- 38
2021-03-02 10:00:00 8.6 0 Calma -- -- -- -- -- 68
2021-03-02 09:00:00 7.2 3 Sudoeste 7 Oeste 0 -- -- 71
2021-03-02 08:00:00 8 3 Sudoeste 25 Sudoeste 0 -- -- 62
2021-03-02 07:00:00 11.4 15 Sudoeste 29 Oeste 0 -- -- 46
2021-03-02 06:00:00 10.8 12 Sudoeste 30 Sudoeste 0 -- -- 49
2021-03-02 05:00:00 4.7 2 Este 9 Oeste 0 -- -- 77
2021-03-02 04:00:00 4.3 2 Sudeste 8 Sudoeste 0 -- -- 81
2021-03-02 03:00:00 3.6 2 Este 8 Sudoeste 0 -- -- 84
2021-03-02 02:00:00 3.6 0 Calma 6 Oeste 0 -- -- 85
2021-03-02 01:00:00 4 0 Calma 6 Oeste 0 -- -- 83
2021-03-02 00:00:00 4 2 Sudoeste 5 Sur 0 -- -- 81
2021-03-01 23:00:00 4.4 0 Calma 5 Sudoeste 0 -- -- 80
2021-03-01 22:00:00 5.2 2 Sudoeste 5 Noroeste 0 -- -- 77
2021-03-01 21:00:00 6.5 0 Calma 6 Sudoeste 0 -- -- 73
2021-03-01 20:00:00 8.5 3 Sur 7 Sur 0 -- -- 64
2021-03-01 19:00:00 12.1 3 Sur 26 Este 0 -- -- 50
2021-03-01 18:00:00 16.3 6 Oeste 29 Sudoeste 0 -- -- 31
2021-03-01 17:00:00 17.7 16 Sudoeste 41 Sur 0 -- -- 26
2021-03-01 16:00:00 19.1 18 Sudoeste 39 Sudoeste 0 -- -- 27
2021-03-01 15:00:00 19.4 22 Sudoeste 41 Sudoeste 0 -- -- 24
2021-03-01 14:00:00 19.4 19 Sudoeste 39 Sudoeste 0 -- -- 25
2021-03-01 13:00:00 19.3 20 Sudoeste 35 Sudoeste 0 -- -- 25
2021-03-01 12:00:00 15 6 Nordeste 13 Nordeste 0 -- -- 33
2021-03-01 11:00:00 9.5 3 Nordeste 5 Norte 0 -- -- 49
2021-03-01 10:00:00 4.6 2 Sudeste 5 Oeste 0 -- -- 67
2021-03-01 09:00:00 4.8 3 Nordeste 20 Sudoeste 0 -- -- 62
2021-03-01 08:00:00 3.5 13 Sudoeste 19 Sudoeste 0 -- -- 60
2021-03-01 07:00:00 4.7 6 Sur 27 Oeste 0 -- -- 53
2021-03-01 06:00:00 6.3 18 Sudoeste 37 Sudoeste 0 -- -- 49
2021-03-01 05:00:00 7 19 Sudoeste 34 Sudoeste 0 -- -- 46
2021-03-01 04:00:00 6.9 20 Sudoeste 39 Sudoeste 0 -- -- 48
2021-03-01 03:00:00 6.9 23 Sudoeste 39 Sudoeste 0 -- -- 50
2021-03-01 02:00:00 7.2 22 Sudoeste 38 Sudoeste 0 -- -- 52
2021-03-01 01:00:00 7.4 12 Sudoeste 24 Sudoeste 0 -- -- 53
2021-03-01 00:00:00 7.7 12 Sudoeste 24 Sur 0 -- -- 54
2021-02-28 23:00:00 4.9 9 Sudoeste 15 Sudoeste 0 -- -- 73
2021-02-28 22:00:00 5 2 Sudoeste 10 Sudoeste 0 -- -- 77
2021-02-28 21:00:00 6.2 2 Sudeste 6 Oeste 0 -- -- 72
2021-02-28 20:00:00 8.3 0 Calma 14 Oeste 0 -- -- 63
2021-02-28 19:00:00 9.8 3 Sur 18 Oeste 0 -- -- 56
2021-02-28 18:00:00 11.8 12 Sudoeste 30 Sudoeste 0 -- -- 46
2021-02-28 17:00:00 11.8 16 Sudoeste 44 Sudoeste 0 -- -- 44
2021-02-28 16:00:00 12.2 22 Sudoeste 41 Sudoeste 0 -- -- 44
2021-02-28 15:00:00 14.1 18 Sudoeste 45 Sudoeste 0 -- -- 40
2021-02-28 14:00:00 13.5 4 Noroeste 12 Nordeste 0 -- -- 46
2021-02-28 13:00:00 11.2 6 Nordeste 12 Nordeste 0 -- -- 50
2021-02-28 12:00:00 8.7 3 Nordeste 6 Este 0 -- -- 56
2021-02-28 11:00:00 5.9 3 Nordeste 10 Nordeste 0 -- -- 69
2021-02-28 10:00:00 2.5 2 Nordeste 5 Nordeste 0 -- -- 88
2021-02-28 09:00:00 0.6 0 Calma 7 Sudoeste 0 -- -- 90
2021-02-28 08:00:00 -0.1 5 Sudoeste 8 Sudoeste 0 -- -- 92
2021-02-28 07:00:00 0.3 2 Nordeste 6 Sudoeste 0 -- -- 92
2021-02-28 06:00:00 0.6 2 Sur 11 Sudoeste 0 -- -- 89
2021-02-28 05:00:00 0.6 6 Sudoeste 10 Sudoeste 0 -- -- 91
2021-02-28 04:00:00 2 2 Sudoeste 10 Sur 0 -- -- 84
2021-02-28 03:00:00 3.1 10 Sudoeste 18 Sudoeste 0 -- -- 81
2021-02-28 02:00:00 4.1 10 Sudoeste 17 Sudoeste 0 -- -- 82
2021-02-28 01:00:00 4.9 4 Sudoeste 9 Sudoeste 0 -- -- 86
2021-02-28 00:00:00 5.5 0 Calma 2 Norte 0 -- -- 87
2021-02-27 23:00:00 6.3 0 Calma 8 Este 0 -- -- 81
2021-02-27 22:00:00 7.2 2 Nordeste 4 Nordeste 0 -- -- 76
2021-02-27 21:00:00 7.5 0 Calma 4 Este 0 -- -- 76
2021-02-27 20:00:00 8.1 3 Nordeste 8 Norte 0 -- -- 69
2021-02-27 19:00:00 8.5 3 Norte 16 Norte 0 -- -- 66
2021-02-27 18:00:00 10.3 6 Norte 20 Norte 0 -- -- 56
2021-02-27 17:00:00 12 10 Norte 23 Norte 0 -- -- 53
2021-02-27 16:00:00 12.8 13 Norte 27 Norte 0 -- -- 55
2021-02-27 15:00:00 12.7 17 Nordeste 27 Norte 0 -- -- 61
2021-02-27 14:00:00 12.9 13 Norte 26 Norte 0 -- -- 61
2021-02-27 13:00:00 12.8 11 Norte 19 Norte 0 -- -- 59
2021-02-27 12:00:00 10.4 9 Norte 14 Nordeste 0 -- -- 63
2021-02-27 11:00:00 6.4 2 Nordeste 5 Nordeste 0 -- -- 81
2021-02-27 10:00:00 2.2 3 Norte 6 Sudoeste 0 -- -- 92
2021-02-27 09:00:00 2.4 4 Nordeste 20 Sur 0 -- -- 90
2021-02-27 08:00:00 1.5 5 Sudoeste 14 Oeste 0 -- -- 95
2021-02-27 07:00:00 1.6 5 Sudoeste 9 Sudoeste 0 -- -- 92
2021-02-27 06:00:00 2.8 4 Sudoeste 10 Sudoeste 0 -- -- 91
2021-02-27 05:00:00 3.6 5 Sudoeste 16 Sudoeste 0 -- -- 89
2021-02-27 04:00:00 4.1 8 Sudoeste 14 Sudoeste 0 -- -- 89
2021-02-27 03:00:00 5.5 7 Sudoeste 16 Sudoeste 0 -- -- 86
2021-02-27 02:00:00 6.2 4 Sudoeste 6 Sudoeste 0 -- -- 88
2021-02-27 01:00:00 8.5 3 Nordeste 14 Sudoeste 0 -- -- 86
2021-02-27 00:00:00 8.7 8 Sudoeste 13 Sudoeste 0 -- -- 86
2021-02-26 23:00:00 8.7 2 Sur 4 Sudoeste 0 -- -- 91
2021-02-26 22:00:00 8.3 0 Calma 3 Oeste 0 -- -- 92
2021-02-26 21:00:00 7.2 0 Calma 3 Sudoeste 0 -- -- 91
2021-02-26 20:00:00 7.3 0 Calma 4 Sur 0 -- -- 87
2021-02-26 19:00:00 9.5 0 Calma 6 Nordeste 0 -- -- 79
2021-02-26 18:00:00 12.5 0 Calma 14 Norte 0 -- -- 71
2021-02-26 17:00:00 14.1 5 Norte 21 Norte 0 -- -- 62
2021-02-26 16:00:00 15 11 Norte 21 Norte 0 -- -- 58
2021-02-26 15:00:00 15.2 11 Norte 25 Norte 0 -- -- 55
2021-02-26 14:00:00 15.4 12 Norte 22 Nordeste 0 -- -- 53
2021-02-26 13:00:00 14.3 9 Norte 16 Norte 0 -- -- 52
2021-02-26 12:00:00 12.3 5 Norte 9 Norte 0 -- -- 55
2021-02-26 11:00:00 7.5 4 Nordeste 5 Norte 0 -- -- 73
2021-02-26 10:00:00 3.5 0 Calma 8 Sudoeste 0 -- -- 87
2021-02-26 09:00:00 2.3 4 Sudoeste 12 Sudoeste 0 -- -- 88
2021-02-26 08:00:00 2.5 6 Sur 15 Sur 0 -- -- 85
2021-02-26 07:00:00 2 4 Sudoeste 8 Sudoeste 0 -- -- 90
2021-02-26 06:00:00 2.2 2 Sur 8 Sur 0 -- -- 90
2021-02-26 05:00:00 2.5 6 Sur 8 Sur 0 -- -- 90
2021-02-26 04:00:00 2.9 3 Sur 9 Sudoeste 0 -- -- 89
2021-02-26 03:00:00 3.4 3 Sudoeste 8 Sudoeste 0 -- -- 87
2021-02-26 02:00:00 4.2 2 Sudoeste 8 Sudoeste 0 -- -- 85
2021-02-26 01:00:00 5.7 6 Sur 13 Sur 0 -- -- 79
2021-02-26 00:00:00 5.9 6 Sur 14 Sudoeste 0 -- -- 80
2021-02-25 23:00:00 5.6 3 Sur 8 Sudoeste 0 -- -- 83
2021-02-25 22:00:00 6.3 0 Calma 6 Sur 0 -- -- 80
2021-02-25 21:00:00 6.8 2 Sudoeste 6 Sur 0 -- -- 79
2021-02-25 20:00:00 8.2 0 Calma 4 Sudeste 0 -- -- 74
2021-02-25 19:00:00 11.5 0 Calma 14 Nordeste 0 -- -- 60
2021-02-25 18:00:00 14.3 5 Nordeste 21 Norte 0 -- -- 45
2021-02-25 17:00:00 15.7 11 Norte 26 Norte 0 -- -- 46
2021-02-25 16:00:00 16.6 14 Norte 26 Nordeste 0 -- -- 42
2021-02-25 15:00:00 17.6 10 Norte 19 Norte 0 -- -- 38
2021-02-25 14:00:00 18.2 0 Calma 4 Sur 0 -- -- 37
2021-02-25 13:00:00 16.5 2 Sur 5 Norte 0 -- -- 27
2021-02-25 12:00:00 13.8 2 Este 5 Sudeste 0 -- -- 38
2021-02-25 11:00:00 8 0 Calma 4 Sur 0 -- -- 53
2021-02-25 10:00:00 2.8 2 Sudoeste 5 Sudoeste 0 -- -- 77
2021-02-25 09:00:00 2.5 3 Sudoeste 12 Sudoeste 0 -- -- 72
2021-02-25 08:00:00 2.7 0 Calma 15 Sudoeste 0 -- -- 68
2021-02-25 07:00:00 2.9 6 Sur 15 Sudoeste 0 -- -- 67
2021-02-25 06:00:00 2.3 3 Sudoeste 6 Noroeste 0 -- -- 72
2021-02-25 05:00:00 3.6 2 Norte 13 Sudoeste 0 -- -- 65
2021-02-25 04:00:00 4.4 5 Sur 10 Sudoeste 0 -- -- 58
2021-02-25 03:00:00 6 4 Sur 18 Sudoeste 0 -- -- 51
2021-02-25 02:00:00 5.7 14 Sudoeste 17 Sur 0 -- -- 56
2021-02-25 01:00:00 6.3 10 Sur 18 Sudoeste 0 -- -- 58
2021-02-25 00:00:00 7.5 12 Sudoeste 21 Oeste 0 -- -- 57
2021-02-24 23:00:00 8.8 15 Sudoeste 23 Sudoeste 0 -- -- 53
2021-02-24 22:00:00 10.3 16 Sudoeste 27 Sudoeste 0 -- -- 49
2021-02-24 21:00:00 11.1 14 Sudoeste 20 Sur 0 -- -- 49
2021-02-24 20:00:00 11 7 Sudoeste 22 Sudoeste 0 -- -- 50
2021-02-24 19:00:00 12.7 10 Sudoeste 18 Sudoeste 0 -- -- 48
2021-02-24 18:00:00 12.6 10 Sudoeste 17 Sudoeste 0 -- -- 57
2021-02-24 17:00:00 17.9 11 Sudoeste 21 Sudoeste 0 -- -- 39
2021-02-24 16:00:00 20.5 12 Sudoeste 36 Sudoeste 0 -- -- 30
2021-02-24 15:00:00 21.1 16 Sudoeste 31 Sudoeste 0 -- -- 28
2021-02-24 14:00:00 21.7 17 Sudoeste 30 Sudoeste 0 -- -- 30
2021-02-24 13:00:00 21.4 15 Sudoeste 42 Sudoeste 0 -- -- 28
2021-02-24 12:00:00 20 25 Sudoeste 44 Sudoeste 0 -- -- 30
2021-02-24 11:00:00 18 20 Sudoeste 39 Sudoeste 0 -- -- 36
2021-02-24 10:00:00 14.1 18 Sur 35 Sudoeste 0 -- -- 46
2021-02-24 09:00:00 12.9 23 Sudoeste 33 Sudoeste 0 -- -- 50
2021-02-24 08:00:00 12.3 15 Sudoeste 28 Sur 0 -- -- 52
2021-02-24 07:00:00 12.3 12 Sudoeste 26 Sudoeste 0 -- -- 51
2021-02-24 06:00:00 12.9 12 Sudoeste 40 Sudoeste 0 -- -- 51
2021-02-24 05:00:00 13.1 18 Sudoeste 31 Sudoeste 0 -- -- 50
2021-02-24 04:00:00 11.9 11 Sudoeste 23 Sudoeste 0 -- -- 55
2021-02-24 03:00:00 11 12 Sudoeste 20 Sudoeste 0 -- -- 60
2021-02-24 02:00:00 9.2 15 Sudoeste 21 Sur 0 -- -- 68
2021-02-24 01:00:00 4.8 2 Sudoeste 8 Sudoeste 0 -- -- 92
2021-02-24 00:00:00 5.7 2 Sudeste 8 Noroeste 0 -- -- 90
2021-02-23 23:00:00 6.4 3 Sudoeste 8 Oeste 0 -- -- 87
2021-02-23 22:00:00 7.3 3 Norte 17 Oeste 0 -- -- 82
2021-02-23 21:00:00 8.6 4 Sur 9 Sudeste 0 -- -- 78
2021-02-23 20:00:00 12.4 8 Sur 19 Sur 0 -- -- 58
2021-02-23 19:00:00 12.2 11 Sudoeste 24 Sudoeste 0 -- -- 60
2021-02-23 18:00:00 14.9 17 Sudoeste 39 Sudoeste 0 -- -- 49
2021-02-23 17:00:00 16 20 Sudoeste 43 Sudoeste 0 -- -- 45
2021-02-23 16:00:00 16.4 13 Sudoeste 38 Sudoeste 0 -- -- 43
2021-02-23 15:00:00 17.2 18 Sudoeste 43 Sudoeste 0 -- -- 42
2021-02-23 14:00:00 18.2 21 Sudoeste 47 Sudoeste 0 -- -- 42
2021-02-23 13:00:00 17.7 21 Sudoeste 52 Sudoeste 0 -- -- 40
2021-02-23 12:00:00 14.3 6 Sur 35 Sudoeste 0 -- -- 65
2021-02-23 11:00:00 8.7 5 Nordeste 13 Este 0 -- -- 96
2021-02-23 10:00:00 4.8 3 Nordeste 8 Sur 0 -- -- 100
2021-02-23 09:00:00 4.1 3 Noroeste 10 Sudeste 0 -- -- 100
2021-02-23 08:00:00 3.4 3 Sur 8 Nordeste 0 -- -- 100
2021-02-23 07:00:00 3.7 3 Sur 8 Sudoeste 0 -- -- 99
2021-02-23 06:00:00 4 3 Sudoeste 5 Sudoeste 0 -- -- 98
2021-02-23 05:00:00 5.3 3 Nordeste 8 Sur 0 -- -- 98
2021-02-23 04:00:00 6.3 0 Calma 6 Este 0 -- -- 98
2021-02-23 03:00:00 6.4 0 Calma 3 Nordeste 0 -- -- 98
2021-02-23 02:00:00 6.5 0 Calma 4 Oeste 0 -- -- 97
2021-02-23 01:00:00 6.6 0 Calma 3 Noroeste 0 -- -- 97
2021-02-23 00:00:00 6.6 0 Calma 4 Nordeste 0 -- -- 96
2021-02-22 23:00:00 6.7 0 Calma 5 Nordeste 0 -- -- 95
2021-02-22 22:00:00 6.9 0 Calma 4 Nordeste 0 -- -- 95
2021-02-22 21:00:00 7 0 Calma 5 Nordeste 0 -- -- 96
2021-02-22 20:00:00 7.2 2 Nordeste 5 Nordeste 0.2 -- -- 95
2021-02-22 19:00:00 7.5 0 Calma 5 Nordeste 0 -- -- 95
2021-02-22 18:00:00 8.1 0 Calma 5 Este 0.2 -- -- 90
2021-02-22 17:00:00 8.3 0 Calma 5 Norte 0.4 -- -- 89
2021-02-22 16:00:00 8.2 0 Calma 7 Nordeste 0.4 -- -- 89
2021-02-22 15:00:00 8.3 2 Este 6 Sudeste 0.2 -- -- 88
2021-02-22 14:00:00 7.9 2 Oeste 8 Este 1 -- -- 93
2021-02-22 13:00:00 7.6 3 Nordeste 15 Nordeste 1 -- -- 94
2021-02-22 12:00:00 8.2 2 Oeste 10 Sur 1.4 -- -- 95
2021-02-22 11:00:00 8 8 Sudoeste 10 Sur 2 -- -- 97
2021-02-22 10:00:00 7.7 2 Sudoeste 5 Sudoeste 3 -- -- 98
2021-02-22 09:00:00 7.6 0 Calma 8 Nordeste 1.6 -- -- 96
2021-02-22 08:00:00 7.7 2 Nordeste 11 Nordeste 0 -- -- 98
2021-02-22 07:00:00 7.7 2 Sur 9 Este 0.8 -- -- 96
2021-02-22 06:00:00 8.3 2 Nordeste 12 Este 0.4 -- -- 96
2021-02-22 05:00:00 8.4 0 Calma 9 Sudoeste 0.2 -- -- 96
2021-02-22 04:00:00 8.7 8 Sudoeste 13 Sudoeste 0.4 -- -- 93
2021-02-22 03:00:00 9.2 11 Sudoeste 24 Sudoeste 0.4 -- -- 89
2021-02-22 02:00:00 10.3 12 Sur 20 Sur 0 -- -- 78
2021-02-22 01:00:00 9.9 7 Sur 21 Oeste 0.2 -- -- 82
2021-02-22 00:00:00 10.7 8 Oeste 31 Oeste 0.4 -- -- 77
2021-02-21 23:00:00 13.2 15 Oeste 40 Sudoeste 0 -- -- 57
2021-02-21 22:00:00 15.4 23 Sudoeste 47 Sudoeste 0 -- -- 43
2021-02-21 21:00:00 17 24 Sudoeste 59 Sudoeste 0 -- -- 34
2021-02-21 20:00:00 17.3 28 Sudoeste 66 Sudoeste 0 -- -- 33
2021-02-21 19:00:00 17.1 29 Sudoeste 70 Sudoeste 0 -- -- 34
2021-02-21 18:00:00 16.8 23 Oeste 58 Sudoeste 0 -- -- 34
2021-02-21 17:00:00 17.8 18 Oeste 46 Sudoeste 0 -- -- 33
2021-02-21 16:00:00 18.9 21 Oeste 46 Sudoeste 0 -- -- 32
2021-02-21 15:00:00 19.2 17 Oeste 42 Sudoeste 0 -- -- 30
2021-02-21 14:00:00 19.5 17 Oeste 50 Oeste 0 -- -- 29
2021-02-21 13:00:00 19 21 Oeste 57 Sudoeste 0 -- -- 29
2021-02-21 12:00:00 19.2 16 Oeste 51 Sudoeste 0 -- -- 30
2021-02-21 11:00:00 18.5 26 Sudoeste 60 Sudoeste 0 -- -- 30
2021-02-21 10:00:00 16.8 31 Sudoeste 59 Sudoeste 0 -- -- 30
2021-02-21 09:00:00 16.1 22 Sudoeste 64 Sudoeste 0 -- -- 30
2021-02-21 08:00:00 15.7 30 Sudoeste 58 Sudoeste 0 -- -- 27
2021-02-21 07:00:00 16 29 Sudoeste 55 Sudoeste 0 -- -- 28
2021-02-21 06:00:00 16.2 24 Oeste 49 Sudoeste 0 -- -- 27
2021-02-21 05:00:00 16.4 21 Oeste 42 Sudoeste 0 -- -- 25
2021-02-21 04:00:00 16.6 22 Oeste 49 Oeste 0 -- -- 22
2021-02-21 03:00:00 16.5 22 Sudoeste 48 Sudoeste 0 -- -- 23
2021-02-21 02:00:00 16.6 24 Sudoeste 46 Oeste 0 -- -- 22
2021-02-21 01:00:00 16.3 21 Sudoeste 43 Sudoeste 0 -- -- 23
2021-02-21 00:00:00 16.3 18 Sudoeste 44 Sudoeste 0 -- -- 24
2021-02-20 23:00:00 16.4 21 Sudoeste 59 Sudoeste 0 -- -- 24
2021-02-20 22:00:00 16.8 32 Sudoeste 55 Sudoeste 0 -- -- 23
2021-02-20 21:00:00 17 27 Sudoeste 50 Sudoeste 0 -- -- 25
2021-02-20 20:00:00 17.1 28 Sudoeste 53 Sudoeste 0 -- -- 25
2021-02-20 19:00:00 17.2 30 Sudoeste 62 Sudoeste 0 -- -- 25
2021-02-20 18:00:00 17.7 24 Sudoeste 54 Sudoeste 0 -- -- 25
2021-02-20 17:00:00 18.2 26 Sudoeste 54 Sudoeste 0 -- -- 25
2021-02-20 16:00:00 18.2 30 Sudoeste 54 Sudoeste 0 -- -- 25
2021-02-20 15:00:00 18.8 26 Sudoeste 64 Sudoeste 0 -- -- 25
2021-02-20 14:00:00 19.6 28 Sudoeste 66 Sudoeste 0 -- -- 24
2021-02-20 13:00:00 20 31 Sudoeste 54 Sudoeste 0 -- -- 23
2021-02-20 12:00:00 19.8 29 Sudoeste 59 Sudoeste 0 -- -- 26
2021-02-20 11:00:00 18 32 Sudoeste 66 Sudoeste 0 -- -- 26
2021-02-20 10:00:00 13.8 5 Oeste 19 Sudoeste 0 -- -- 38
2021-02-20 09:00:00 14.3 12 Sudoeste 36 Oeste 0 -- -- 32
2021-02-20 08:00:00 14.1 15 Sudoeste 34 Sudoeste 0 -- -- 32
2021-02-20 07:00:00 13.4 7 Sur 30 Sudoeste 0 -- -- 37
2021-02-20 06:00:00 14.4 18 Sudoeste 38 Oeste 0 -- -- 31
2021-02-20 05:00:00 14.3 14 Sudoeste 36 Oeste 0 -- -- 31
2021-02-20 04:00:00 14.4 16 Sudoeste 32 Sudoeste 0 -- -- 30
2021-02-20 03:00:00 13.4 12 Sudoeste 36 Sudoeste 0 -- -- 34
2021-02-20 02:00:00 13.8 17 Sudoeste 33 Sudoeste 0 -- -- 34
2021-02-20 01:00:00 12.9 11 Sudoeste 32 Sudoeste 0 -- -- 36
2021-02-20 00:00:00 13 15 Sur 30 Sudoeste 0 -- -- 36
2021-02-19 23:00:00 11.8 10 Sur 19 Sur 0 -- -- 39
2021-02-19 22:00:00 12.7 12 Sur 23 Sur 0 -- -- 37
2021-02-19 21:00:00 12.1 12 Sur 27 Sudoeste 0 -- -- 38
2021-02-19 20:00:00 11.2 8 Sudoeste 19 Sudoeste 0 -- -- 45
2021-02-19 19:00:00 11.5 0 Calma 14 Sudoeste 0 -- -- 46
2021-02-19 18:00:00 14.7 8 Sudoeste 26 Sudoeste 0 -- -- 38
2021-02-19 17:00:00 16.9 14 Sudoeste 35 Sudoeste 0 -- -- 32
2021-02-19 16:00:00 18.8 24 Sudoeste 40 Sudoeste 0 -- -- 30
2021-02-19 15:00:00 19.1 21 Sudoeste 59 Sudoeste 0 -- -- 27
2021-02-19 14:00:00 18.3 26 Sur 55 Sur 0 -- -- 29
2021-02-19 13:00:00 18.8 22 Sudoeste 52 Sur 0 -- -- 28
2021-02-19 12:00:00 16.4 9 Sur 26 Sudoeste 0 -- -- 38
2021-02-19 11:00:00 6.2 2 Este 7 Oeste 0 -- -- 81
2021-02-19 10:00:00 2.8 0 Calma 7 Oeste 0 -- -- 90
2021-02-19 09:00:00 2 2 Sudoeste 6 Sur 0 -- -- 91
2021-02-19 08:00:00 1.8 3 Sudoeste 12 Oeste 0 -- -- 89
2021-02-19 07:00:00 2.2 3 Sur 9 Sudeste 0 -- -- 89
2021-02-19 06:00:00 2.3 2 Sudoeste 9 Sur 0 -- -- 86
2021-02-19 05:00:00 2.7 0 Calma 12 Sudoeste 0 -- -- 85
2021-02-19 04:00:00 2.6 3 Sudoeste 8 Oeste 0 -- -- 86
2021-02-19 03:00:00 2.7 3 Sudoeste 8 Sur 0 -- -- 85
2021-02-19 02:00:00 3.1 4 Sur 8 Oeste 0 -- -- 85
2021-02-19 01:00:00 3.4 3 Sur 9 Oeste 0 -- -- 84
2021-02-19 00:00:00 4.1 3 Nordeste 6 Oeste 0 -- -- 81
2021-02-18 23:00:00 5.5 5 Sudeste 12 Sudoeste 0 -- -- 74
2021-02-18 22:00:00 5.6 4 Sudoeste 14 Sudoeste 0 -- -- 71
2021-02-18 21:00:00 6.8 3 Sudoeste 10 Sudoeste 0 -- -- 65
2021-02-18 20:00:00 8.8 2 Sur 12 Sudoeste 0 -- -- 58
2021-02-18 19:00:00 11.9 8 Sudoeste 26 Sudoeste 0 -- -- 43
2021-02-18 18:00:00 14 15 Sur 24 Sur 0 -- -- 35
2021-02-18 17:00:00 14.9 15 Sudoeste 19 Sudoeste 0 -- -- 37
2021-02-18 16:00:00 19.6 14 Sudoeste 36 Sudoeste 0 -- -- 22
2021-02-18 15:00:00 19.9 14 Sudoeste 45 Sudoeste 0 -- -- 26
2021-02-18 14:00:00 19.6 16 Sur 39 Sudoeste 0 -- -- 26
2021-02-18 13:00:00 19.6 12 Sudoeste 55 Sudoeste 0 -- -- 26
2021-02-18 12:00:00 19.8 19 Sudoeste 40 Sudoeste 0 -- -- 29
2021-02-18 11:00:00 17.3 21 Sudoeste 41 Sudoeste 0 -- -- 29
2021-02-18 10:00:00 15.5 15 Sudoeste 30 Sudoeste 0 -- -- 32
2021-02-18 09:00:00 14.2 13 Sudoeste 41 Sudoeste 0 -- -- 36
2021-02-18 08:00:00 15.2 27 Sudoeste 45 Sudoeste 0 -- -- 30
2021-02-18 07:00:00 14.2 17 Sur 39 Oeste 0 -- -- 31
2021-02-18 06:00:00 13.2 18 Sur 39 Sudoeste 0 -- -- 41
2021-02-18 05:00:00 12.3 14 Sudoeste 34 Sudoeste 0 -- -- 47
2021-02-18 04:00:00 7.7 4 Oeste 12 Nordeste 0 -- -- 71
2021-02-18 03:00:00 7 4 Sur 10 Sudoeste 0 -- -- 75
2021-02-18 02:00:00 7.7 2 Sur 10 Nordeste 0 -- -- 72
2021-02-18 01:00:00 9 3 Sudeste 21 Sudoeste 0 -- -- 66
2021-02-18 00:00:00 8.9 4 Este 14 Sudoeste 0 -- -- 67
2021-02-17 23:00:00 9.4 7 Sudoeste 22 Sudoeste 0 -- -- 64
2021-02-17 22:00:00 8.3 9 Sudoeste 18 Sudoeste 0 -- -- 67
2021-02-17 21:00:00 8.1 9 Sudoeste 21 Sudoeste 0 -- -- 67
2021-02-17 20:00:00 7.4 4 Sur 13 Sudoeste 0 -- -- 74
2021-02-17 19:00:00 8.8 8 Sudoeste 14 Sudoeste 0 -- -- 68
2021-02-17 18:00:00 12.7 0 Calma 24 Sur 0 -- -- 57
2021-02-17 17:00:00 16.1 10 Sudoeste 21 Sudoeste 0 -- -- 37
2021-02-17 16:00:00 18.2 12 Sudoeste 25 Sudoeste 0 -- -- 34
2021-02-17 15:00:00 19.3 13 Sudoeste 27 Sudoeste 0 -- -- 30
2021-02-17 14:00:00 18.5 9 Sur 30 Sudoeste 0 -- -- 31
2021-02-17 13:00:00 15.3 5 Nordeste 10 Nordeste 0 -- -- 43
2021-02-17 12:00:00 11.3 3 Nordeste 6 Sudoeste 0 -- -- 64
2021-02-17 11:00:00 3 0 Calma 5 Sur 0 -- -- 98
2021-02-17 10:00:00 2.2 0 Calma 9 Sudoeste 0 -- -- 93
2021-02-17 09:00:00 2.3 5 Sur 10 Sur 0 -- -- 92
2021-02-17 08:00:00 2.2 0 Calma 14 Sudoeste 0 -- -- 92
2021-02-17 07:00:00 3.3 5 Sur 21 Sudoeste 0 -- -- 88
2021-02-17 06:00:00 3.4 8 Sudoeste 19 Sudoeste 0 -- -- 91
2021-02-17 05:00:00 3.3 8 Sudoeste 14 Sudoeste 0 -- -- 93
2021-02-17 04:00:00 3.9 2 Norte 13 Sur 0 -- -- 90
2021-02-17 03:00:00 4.8 9 Sudoeste 18 Sudoeste 0 -- -- 90
2021-02-17 02:00:00 4.3 9 Sudoeste 13 Sudoeste 0 -- -- 93
2021-02-17 01:00:00 5.3 9 Sudoeste 13 Sudoeste 0 -- -- 90
2021-02-17 00:00:00 6 3 Sur 7 Sudoeste 0 -- -- 89
2021-02-16 23:00:00 6.4 4 Sudoeste 6 Sudoeste 0 -- -- 90
2021-02-16 22:00:00 6.9 0 Calma 4 Sudeste 0 -- -- 87
2021-02-16 21:00:00 8.7 0 Calma 10 Norte 0 -- -- 79
2021-02-16 20:00:00 10.5 5 Nordeste 15 Norte 0 -- -- 69
2021-02-16 19:00:00 11.9 4 Nordeste 24 Norte 0 -- -- 62
2021-02-16 18:00:00 14 9 Norte 38 Norte 0 -- -- 56
2021-02-16 17:00:00 16.8 3 Sudoeste 9 Nordeste 0 -- -- 44
2021-02-16 16:00:00 19.7 4 Sudeste 15 Norte 0 -- -- 25
2021-02-16 15:00:00 21.6 5 Este 28 Oeste 0 -- -- 24
2021-02-16 14:00:00 22.3 10 Sur 27 Sur 0 -- -- 19
2021-02-16 13:00:00 22 13 Sur 45 Sur 0 -- -- 20
2021-02-16 12:00:00 16.2 8 Sur 22 Sur 0 -- -- 33
2021-02-16 11:00:00 8.8 3 Sudeste 6 Sur 0 -- -- 63
2021-02-16 10:00:00 7.2 4 Norte 9 Sudoeste 0 -- -- 63
2021-02-16 09:00:00 8.2 4 Sur 24 Sudoeste 0 -- -- 51
2021-02-16 08:00:00 7.3 11 Sur 23 Sudoeste 0 -- -- 50
2021-02-16 07:00:00 6.2 12 Sur 18 Sur 0 -- -- 56
2021-02-16 06:00:00 5.6 4 Sudoeste 13 Sur 0 -- -- 62
2021-02-16 05:00:00 9.2 8 Sur 22 Oeste 0 -- -- 38
2021-02-16 04:00:00 7.4 4 Sur 15 Sur 0 -- -- 47
2021-02-16 03:00:00 10 7 Sudoeste 27 Sudoeste 0 -- -- 44
2021-02-16 02:00:00 10.2 14 Sudoeste 23 Sudoeste 0 -- -- 46
2021-02-16 01:00:00 11.1 9 Oeste 25 Oeste 0 -- -- 47
2021-02-16 00:00:00 11.3 10 Sur 23 Sudoeste 0 -- -- 47
2021-02-15 23:00:00 11 10 Sudoeste 22 Sudoeste 0 -- -- 51
2021-02-15 22:00:00 8.7 5 Sur 11 Sudoeste 0 -- -- 65
2021-02-15 21:00:00 6.7 3 Sudoeste 15 Sur 0 -- -- 80
2021-02-15 20:00:00 7.6 5 Sur 12 Sudoeste 0 -- -- 77
2021-02-15 19:00:00 9.2 0 Calma 7 Sudoeste 0 -- -- 74
2021-02-15 18:00:00 13.1 0 Calma 12 Nordeste 0 -- -- 63
2021-02-15 17:00:00 16.3 5 Nordeste 15 Norte 0 -- -- 42
2021-02-15 16:00:00 17.7 5 Nordeste 14 Norte 0 -- -- 38
2021-02-15 15:00:00 18.6 3 Nordeste 12 Norte 0 -- -- 34
2021-02-15 14:00:00 17.5 4 Nordeste 6 Nordeste 0 -- -- 32
2021-02-15 13:00:00 15.5 3 Nordeste 6 Nordeste 0 -- -- 42
2021-02-15 12:00:00 12.1 2 Este 4 Nordeste 0 -- -- 52
2021-02-15 11:00:00 3.4 0 Calma 5 Sur 0 -- -- 85
2021-02-15 10:00:00 3.1 0 Calma 14 Sudoeste 0 -- -- 78
2021-02-15 09:00:00 3.6 6 Sur 24 Sudoeste 0 -- -- 71
2021-02-15 08:00:00 4 14 Sudoeste 19 Sudoeste 0 -- -- 68
2021-02-15 07:00:00 5.4 10 Sudoeste 27 Sudoeste 0 -- -- 63
2021-02-15 06:00:00 6.4 11 Sudoeste 24 Sudoeste 0 -- -- 59
2021-02-15 05:00:00 6.7 9 Sudoeste 25 Sudoeste 0 -- -- 58
2021-02-15 04:00:00 7.8 11 Sur 21 Sudoeste 0 -- -- 55
2021-02-15 03:00:00 7.4 6 Sudoeste 20 Sur 0 -- -- 58
2021-02-15 02:00:00 7 6 Sudoeste 23 Sur 0 -- -- 61
2021-02-15 01:00:00 8.7 11 Sur 22 Sudoeste 0 -- -- 53
2021-02-15 00:00:00 8.2 7 Sudoeste 25 Sur 0 -- -- 60
2021-02-14 23:00:00 8.3 8 Sudoeste 24 Sur 0 -- -- 57
2021-02-14 22:00:00 10 11 Sur 27 Sur 0 -- -- 51
2021-02-14 21:00:00 10.7 13 Sudoeste 35 Sudoeste 0 -- -- 51
2021-02-14 20:00:00 11.4 7 Sur 26 Sudeste 0 -- -- 49
2021-02-14 19:00:00 12.3 11 Sudoeste 37 Sudoeste 0 -- -- 47
2021-02-14 18:00:00 13.3 22 Sudoeste 36 Sudoeste 0 -- -- 43
2021-02-14 17:00:00 13 13 Sudoeste 20 Sur 0 -- -- 47
2021-02-14 16:00:00 16.3 13 Sudoeste 28 Sudoeste 0 -- -- 39
2021-02-14 15:00:00 17.4 20 Sudoeste 31 Sudoeste 0 -- -- 34
2021-02-14 14:00:00 17.1 18 Sudoeste 31 Sudoeste 0 -- -- 35
2021-02-14 13:00:00 15.8 19 Sudoeste 30 Sudoeste 0 -- -- 38
2021-02-14 12:00:00 9.1 3 Este 5 Sudeste 0 -- -- 68
2021-02-14 11:00:00 1.2 0 Calma 6 Norte 0 -- -- 95
2021-02-14 10:00:00 0.6 0 Calma 12 Sur 0 -- -- 94
2021-02-14 09:00:00 0.9 7 Sur 19 Sudoeste 0 -- -- 91
2021-02-14 08:00:00 -0.3 3 Sur 6 Sur 0 -- -- 96
2021-02-14 07:00:00 0.6 4 Sudeste 15 Sudoeste 0 -- -- 93
2021-02-14 06:00:00 0.6 2 Sudoeste 14 Sudoeste 0 -- -- 95
2021-02-14 05:00:00 1 9 Sudoeste 14 Sudoeste 0 -- -- 96
2021-02-14 04:00:00 1.5 4 Sur 15 Sudoeste 0 -- -- 96
2021-02-14 03:00:00 2.3 10 Sur 16 Sudoeste 0 -- -- 93
2021-02-14 02:00:00 2.3 10 Sur 14 Sudoeste 0 -- -- 97
2021-02-14 01:00:00 2.7 9 Sur 13 Sur 0 -- -- 96
2021-02-14 00:00:00 3.7 6 Sur 13 Sudoeste 0 -- -- 95
2021-02-13 23:00:00 4.8 7 Sudoeste 12 Sudoeste 0 -- -- 94
2021-02-13 22:00:00 5.3 0 Calma 3 Sur 0 -- -- 92
2021-02-13 21:00:00 7.1 0 Calma 8 Nordeste 0 -- -- 89
2021-02-13 20:00:00 7.9 3 Nordeste 15 Nordeste 0 -- -- 83
2021-02-13 19:00:00 8.4 5 Norte 15 Norte 0 -- -- 80
2021-02-13 18:00:00 8.7 7 Norte 15 Norte 0 -- -- 79
2021-02-13 17:00:00 9.4 8 Norte 18 Norte 0 -- -- 75
2021-02-13 16:00:00 9.8 10 Norte 24 Norte 0 -- -- 74
2021-02-13 15:00:00 11.1 13 Norte 25 Norte 0 -- -- 71
2021-02-13 14:00:00 11.1 13 Norte 21 Norte 0 -- -- 72
2021-02-13 13:00:00 11.1 8 Norte 14 Norte 0 -- -- 74
2021-02-13 08:00:00 -- -- -- -- -- -- -- -- --
2021-02-13 07:00:00 4.7 2 Sur 5 Norte 0 -- -- 99
2021-02-13 06:00:00 5.1 0 Calma 7 Sudoeste 0 -- -- 100
2021-02-13 05:00:00 5.1 3 Sudoeste 6 Sudoeste 0 -- -- 100
2021-02-13 04:00:00 5.3 3 Nordeste 5 Este 0.2 -- -- 100
2021-02-13 03:00:00 5.3 0 Calma 4 Noroeste 0 -- -- 100
2021-02-13 02:00:00 5.5 3 Noroeste 6 Nordeste 0 -- -- 99
2021-02-13 01:00:00 5.8 3 Nordeste 9 Norte 0 -- -- 98
2021-02-13 00:00:00 6.1 0 Calma 6 Oeste 1.2 -- -- 98
2021-02-12 23:00:00 6.4 0 Calma 6 Sur 0.8 -- -- 98
2021-02-12 22:00:00 6.6 2 Sudoeste 10 Nordeste 0.4 -- -- 97
2021-02-12 21:00:00 7.1 6 Nordeste 14 Norte 0.4 -- -- 94
2021-02-12 20:00:00 7.6 10 Norte 23 Norte 0.8 -- -- 93
2021-02-12 19:00:00 7.5 5 Norte 10 Nordeste 1 -- -- 99
2021-02-12 18:00:00 7.8 0 Calma 5 Este 0.4 -- -- 97
2021-02-12 17:00:00 8.3 2 Nordeste 10 Nordeste 0.4 -- -- 95
2021-02-12 16:00:00 8.6 3 Norte 5 Nordeste 0.8 -- -- 96
2021-02-12 15:00:00 8.6 2 Este 14 Norte 2.2 -- -- 94
2021-02-12 14:00:00 8.9 6 Norte 18 Norte 1 -- -- 93
2021-02-12 13:00:00 9.9 5 Nordeste 19 Nordeste 0.2 -- -- 87
2021-02-12 12:00:00 11.1 12 Norte 24 Nordeste 0 -- -- 78
2021-02-12 11:00:00 8.1 5 Sudoeste 19 Norte 0 -- -- 83
2021-02-12 10:00:00 6.4 2 Sudoeste 17 Sudoeste 0 -- -- 89
2021-02-12 09:00:00 4 4 Sur 9 Sur 0 -- -- 97
2021-02-12 08:00:00 3.2 5 Sur 10 Oeste 0 -- -- 98
2021-02-12 07:00:00 2.5 3 Sur 9 Oeste 0 -- -- 98
2021-02-12 06:00:00 2.3 3 Oeste 12 Sudoeste 0 -- -- 98
2021-02-12 05:00:00 2.1 4 Sudoeste 9 Sudoeste 0 -- -- 97
2021-02-12 04:00:00 2.2 0 Calma 5 Sudeste 0 -- -- 97
2021-02-12 03:00:00 2.5 4 Sudoeste 8 Sudoeste 0 -- -- 95
2021-02-12 02:00:00 2.6 0 Calma 8 Sur 0 -- -- 95
2021-02-12 01:00:00 3 3 Sudoeste 7 Sudoeste 0 -- -- 92
2021-02-12 00:00:00 4.1 4 Sudoeste 15 Sudoeste 0 -- -- 90
2021-02-11 23:00:00 4.6 15 Sudoeste 20 Sudoeste 0 -- -- 87
2021-02-11 22:00:00 5.2 11 Sudoeste 22 Sudoeste 0 -- -- 85
2021-02-11 21:00:00 6.1 11 Sudoeste 18 Oeste 0 -- -- 83
2021-02-11 20:00:00 6.3 8 Sudoeste 17 Sudoeste 0 -- -- 84
2021-02-11 19:00:00 7.5 8 Sur 14 Sudoeste 0 -- -- 80
2021-02-11 18:00:00 9.5 0 Calma 6 Sudoeste 0 -- -- 76
2021-02-11 17:00:00 13.8 3 Norte 15 Norte 0 -- -- 54
2021-02-11 16:00:00 14.7 3 Nordeste 10 Nordeste 0 -- -- 41
2021-02-11 15:00:00 13.6 3 Norte 6 Nordeste 0 -- -- 56
2021-02-11 14:00:00 13.2 0 Calma 5 Nordeste 0 -- -- 50
2021-02-11 13:00:00 10.4 0 Calma 6 Nordeste 0 -- -- 64
2021-02-11 12:00:00 5.9 0 Calma 8 Nordeste 0 -- -- 78
2021-02-11 11:00:00 0.6 3 Sudeste 19 Sur 0 -- -- 95
2021-02-11 10:00:00 1.2 15 Sudoeste 24 Sudoeste 0 -- -- 86
2021-02-11 09:00:00 -0.2 5 Sudoeste 22 Oeste 0 -- -- 92
2021-02-11 08:00:00 0.2 17 Sudoeste 25 Sudoeste 0 -- -- 91
2021-02-11 07:00:00 -0.2 12 Sudoeste 19 Sudoeste 0 -- -- 94
2021-02-11 06:00:00 0 9 Sudoeste 21 Sudoeste 0 -- -- 94
2021-02-11 05:00:00 0.1 12 Sudoeste 20 Sudoeste 0 -- -- 96
2021-02-11 04:00:00 0 8 Sudoeste 21 Sudoeste 0 -- -- 96
2021-02-11 03:00:00 -0.3 8 Sudoeste 15 Sudoeste 0 -- -- 98
2021-02-11 02:00:00 0.2 6 Sudoeste 13 Sudoeste 0 -- -- 97
2021-02-11 01:00:00 0.8 9 Sudoeste 20 Sudoeste 0 -- -- 97
2021-02-11 00:00:00 1.2 14 Sudoeste 19 Sudoeste 0 -- -- 99
2021-02-10 23:00:00 1 4 Sur 8 Sudoeste 0 -- -- 99
2021-02-10 22:00:00 1.7 3 Sur 9 Sudoeste 0 -- -- 98
2021-02-10 21:00:00 2.8 10 Sudoeste 13 Sudoeste 0 -- -- 98
2021-02-10 20:00:00 3.3 2 Sudeste 5 Sudeste 0 -- -- 97
2021-02-10 19:00:00 4.3 0 Calma 5 Sur 0 -- -- 96
2021-02-10 18:00:00 5 3 Sur 6 Sudoeste 0.2 -- -- 94
2021-02-10 17:00:00 5.4 0 Calma 3 Este 0.2 -- -- 91
2021-02-10 16:00:00 5.7 0 Calma 9 Nordeste 0.6 -- -- 87
2021-02-10 15:00:00 5.5 5 Nordeste 14 Nordeste 0.2 -- -- 87
2021-02-10 14:00:00 5.6 5 Norte 10 Nordeste 0.4 -- -- 86
2021-02-10 13:00:00 4.8 2 Nordeste 5 Nordeste 0 -- -- 88
2021-02-10 12:00:00 3.8 3 Noroeste 5 Norte 0.4 -- -- 91
2021-02-10 11:00:00 3 2 Norte 6 Nordeste 0.4 -- -- 92
2021-02-10 10:00:00 1.5 0 Calma 3 Norte 0 -- -- 97
2021-02-10 09:00:00 0.7 0 Calma 10 Sudoeste 0 -- -- 97
2021-02-10 08:00:00 -0.2 0 Calma 5 Oeste 0 -- -- 98
2021-02-10 07:00:00 -0.4 3 Sudoeste 10 Sudeste 0 -- -- 96
2021-02-10 06:00:00 -0.2 5 Sur 12 Sudoeste 0 -- -- 97
2021-02-10 05:00:00 0.1 5 Sur 8 Sur 0 -- -- 96
2021-02-10 04:00:00 1.1 2 Sudoeste 17 Sudoeste 0 -- -- 92
2021-02-10 03:00:00 2.2 12 Sur 18 Sur 0 -- -- 91
2021-02-10 02:00:00 2.7 4 Sur 9 Norte 0 -- -- 93
2021-02-10 01:00:00 3 3 Oeste 10 Sudoeste 0 -- -- 93
2021-02-10 00:00:00 3 0 Calma 8 Sudoeste 0 -- -- 93
2021-02-09 23:00:00 3.5 3 Sudeste 9 Sur 0 -- -- 89
2021-02-09 22:00:00 4.5 9 Sudoeste 27 Sudoeste 0 -- -- 86
2021-02-09 21:00:00 6.1 19 Sudoeste 27 Sur 0 -- -- 79
2021-02-09 20:00:00 8.2 12 Sur 43 Sudoeste 0 -- -- 68
2021-02-09 19:00:00 7.9 26 Sudoeste 49 Sudoeste 0.4 -- -- 72
2021-02-09 18:00:00 8.2 24 Sudoeste 48 Sudoeste 0 -- -- 73
2021-02-09 17:00:00 8.9 28 Sudoeste 51 Sudoeste 0 -- -- 66
2021-02-09 16:00:00 10.3 30 Sudoeste 46 Sudoeste 0 -- -- 59
2021-02-09 15:00:00 12.1 26 Sudoeste 43 Sudoeste 0 -- -- 53
2021-02-09 14:00:00 11.1 7 Nordeste 13 Nordeste 0 -- -- 64
2021-02-09 13:00:00 9.4 3 Norte 10 Nordeste 0 -- -- 70
2021-02-09 12:00:00 7 4 Nordeste 9 Nordeste 0 -- -- 82
2021-02-09 11:00:00 4.2 6 Nordeste 12 Nordeste 0 -- -- 87
2021-02-09 10:00:00 3.1 6 Nordeste 23 Oeste 0 -- -- 87
2021-02-09 09:00:00 2.3 3 Este 24 Oeste 0 -- -- 87
2021-02-09 08:00:00 1.3 15 Sudoeste 24 Sudoeste 0 -- -- 90
2021-02-09 07:00:00 -0.2 4 Sur 10 Sudoeste 0 -- -- 97
2021-02-09 06:00:00 0.1 10 Sudoeste 23 Sudoeste 0 -- -- 96
2021-02-09 05:00:00 0.4 16 Sudoeste 22 Oeste 0 -- -- 97
2021-02-09 04:00:00 -0.2 3 Sur 11 Sudoeste 0 -- -- 99
2021-02-09 03:00:00 0.1 2 Sur 10 Sudoeste 0 -- -- 98
2021-02-09 02:00:00 1.1 6 Sur 22 Oeste 0 -- -- 95
2021-02-09 01:00:00 1.1 8 Sur 23 Sudoeste 0 -- -- 96
2021-02-09 00:00:00 0.7 13 Sudoeste 18 Sudoeste 0 -- -- 99
2021-02-08 23:00:00 0.7 4 Sur 7 Sudoeste 0 -- -- 98
2021-02-08 22:00:00 1.5 2 Sudeste 16 Sur 0 -- -- 97
2021-02-08 21:00:00 2 9 Sudoeste 21 Sudoeste 0.2 -- -- 96
2021-02-08 20:00:00 2.3 10 Sudoeste 19 Sudoeste 0 -- -- 95
2021-02-08 19:00:00 2.7 11 Sudoeste 18 Sudoeste 0 -- -- 95
2021-02-08 18:00:00 2.9 8 Sudoeste 13 Sudoeste 0.2 -- -- 95
2021-02-08 17:00:00 3 0 Calma 6 Norte 2 -- -- 94
2021-02-08 16:00:00 3.8 4 Norte 12 Este 3 -- -- 91
2021-02-08 15:00:00 4.7 8 Norte 23 Norte 2.6 -- -- 91
2021-02-08 14:00:00 6.3 10 Norte 20 Nordeste 0.2 -- -- 88
2021-02-08 13:00:00 7.4 3 Nordeste 6 Norte 0 -- -- 76
2021-02-08 12:00:00 7 0 Calma 7 Norte 0 -- -- 75
2021-02-08 11:00:00 5.6 0 Calma 7 Nordeste 0 -- -- 83
2021-02-08 10:00:00 3.6 2 Nordeste 8 Nordeste 0 -- -- 90
2021-02-08 09:00:00 2.4 3 Nordeste 22 Sudoeste 0 -- -- 93
2021-02-08 08:00:00 1.8 6 Sudoeste 18 Sudoeste 0 -- -- 94
2021-02-08 07:00:00 1.5 0 Calma 8 Sur 0 -- -- 95
2021-02-08 06:00:00 1.6 3 Sur 8 Sur 0 -- -- 93
2021-02-08 05:00:00 1.4 2 Sudeste 7 Sur 0 -- -- 94
2021-02-08 04:00:00 2.5 4 Este 13 Sudoeste 0 -- -- 90
2021-02-08 03:00:00 2.2 0 Calma 10 Sudoeste 0 -- -- 92
2021-02-08 02:00:00 3 4 Sur 13 Sudoeste 0 -- -- 88
2021-02-08 01:00:00 3.1 8 Sudoeste 13 Sudoeste 0 -- -- 90
2021-02-08 00:00:00 3.1 5 Sur 12 Sudoeste 0 -- -- 91
2021-02-07 23:00:00 3.4 9 Sudoeste 12 Sur 0 -- -- 91
2021-02-07 22:00:00 3.9 0 Calma 3 Nordeste 0 -- -- 90
2021-02-07 21:00:00 4.3 0 Calma 5 Sur 0 -- -- 88
2021-02-07 20:00:00 4.5 0 Calma 3 Sur 0 -- -- 87
2021-02-07 19:00:00 4.9 0 Calma 4 Norte 0 -- -- 84
2021-02-07 18:00:00 6.3 0 Calma 8 Este 0 -- -- 70
2021-02-07 17:00:00 7.4 4 Nordeste 10 Este 0 -- -- 62
2021-02-07 16:00:00 8.3 3 Nordeste 8 Nordeste 0 -- -- 54
2021-02-07 15:00:00 9.3 5 Nordeste 10 Sur 0 -- -- 46
2021-02-07 14:00:00 9.2 9 Sudoeste 16 Sudoeste 0 -- -- 50
2021-02-07 13:00:00 7.6 4 Nordeste 7 Norte 0 -- -- 57
2021-02-07 12:00:00 4.9 2 Nordeste 5 Nordeste 0 -- -- 86
2021-02-07 11:00:00 0.5 0 Calma 3 Sudeste 0 -- -- 98
2021-02-07 10:00:00 0.3 0 Calma 3 Nordeste 0 -- -- 97
2021-02-07 09:00:00 0.6 0 Calma 4 Norte 0 -- -- 95
2021-02-07 08:00:00 2 0 Calma 7 Noroeste 0 -- -- 93
2021-02-07 07:00:00 2.2 3 Nordeste 10 Nordeste 0 -- -- 92
2021-02-07 06:00:00 2.1 2 Sudeste 14 Nordeste 0.2 -- -- 93
2021-02-07 05:00:00 2.4 7 Norte 17 Norte 0.2 -- -- 91
2021-02-07 04:00:00 2.7 10 Nordeste 19 Nordeste 0.4 -- -- 91
2021-02-07 03:00:00 3.2 10 Norte 22 Norte 0 -- -- 88
2021-02-07 02:00:00 3.8 10 Norte 27 Norte 0 -- -- 87
2021-02-07 01:00:00 4.6 11 Norte 22 Norte 0 -- -- 87
2021-02-07 00:00:00 5.1 9 Norte 22 Norte 0 -- -- 89
2021-02-06 23:00:00 5.4 0 Calma 4 Norte 0.2 -- -- 97
2021-02-06 22:00:00 5.5 2 Sudeste 13 Nordeste 1 -- -- 95
2021-02-06 21:00:00 5.9 8 Nordeste 29 Norte 2 -- -- 92
2021-02-06 20:00:00 8.1 12 Norte 24 Norte 0 -- -- 86
2021-02-06 19:00:00 8.9 4 Nordeste 10 Nordeste 0 -- -- 84
2021-02-06 18:00:00 9.5 4 Nordeste 15 Nordeste 0 -- -- 82
2021-02-06 17:00:00 10.8 4 Este 16 Nordeste 0 -- -- 76
2021-02-06 16:00:00 11.4 7 Nordeste 18 Norte 0 -- -- 74
2021-02-06 15:00:00 11.1 4 Norte 12 Nordeste 0 -- -- 77
2021-02-06 14:00:00 10.3 5 Norte 12 Nordeste 0 -- -- 81
2021-02-06 13:00:00 9.7 5 Nordeste 13 Nordeste 0 -- -- 83
2021-02-06 12:00:00 9 7 Nordeste 15 Norte 0 -- -- 87
2021-02-06 11:00:00 8.7 5 Nordeste 11 Nordeste 0.2 -- -- 88
2021-02-06 10:00:00 8.5 10 Nordeste 38 Sudoeste 0 -- -- 86
2021-02-06 09:00:00 13.3 15 Oeste 33 Sudoeste 0.2 -- -- 59
2021-02-06 08:00:00 9.5 9 Sudoeste 18 Oeste 0 -- -- 78
2021-02-06 07:00:00 9.9 8 Sur 25 Sudoeste 0 -- -- 77
2021-02-06 06:00:00 10.4 14 Sudoeste 23 Sudoeste 0 -- -- 72
2021-02-06 05:00:00 11.5 14 Sudoeste 33 Sudoeste 0 -- -- 63
2021-02-06 04:00:00 12 18 Sudoeste 44 Sudoeste 0 -- -- 58
2021-02-06 03:00:00 12.6 24 Sudoeste 64 Sudoeste 0 -- -- 56
2021-02-06 02:00:00 15.2 32 Sudoeste 87 Sudoeste 0 -- -- 41
2021-02-06 01:00:00 11.1 13 Nordeste 48 Sudoeste 0 -- -- 58
2021-02-06 00:00:00 9.6 9 Nordeste 23 Norte 0 -- -- 72
2021-02-05 23:00:00 9.7 6 Nordeste 26 Norte 0 -- -- 75
2021-02-05 22:00:00 14.9 9 Norte 32 Norte 0 -- -- 46
2021-02-05 21:00:00 10.2 4 Noroeste 9 Este 0 -- -- 66
2021-02-05 20:00:00 11.5 4 Nordeste 15 Sur 0 -- -- 63
2021-02-05 19:00:00 10.3 6 Sudoeste 10 Sudoeste 0 -- -- 77
2021-02-05 18:00:00 12.4 6 Norte 26 Nordeste 0 -- -- 71
2021-02-05 17:00:00 15.1 13 Este 54 Sudoeste 0 -- -- 50
2021-02-05 16:00:00 18.8 29 Sudoeste 74 Sudoeste 0 -- -- 31
2021-02-05 15:00:00 19.8 33 Sudoeste 66 Sudoeste 0 -- -- 30
2021-02-05 14:00:00 19.8 33 Oeste 67 Sudoeste 0 -- -- 33
2021-02-05 13:00:00 15.4 5 Norte 17 Norte 0 -- -- 56
2021-02-05 12:00:00 12 3 Nordeste 7 Nordeste 0 -- -- 69
2021-02-05 11:00:00 9.1 5 Nordeste 13 Nordeste 0 -- -- 80
2021-02-05 10:00:00 7.6 3 Nordeste 8 Este 0 -- -- 84
2021-02-05 09:00:00 6.5 3 Nordeste 9 Sudoeste 0 -- -- 89
2021-02-05 08:00:00 6.4 3 Sur 8 Este 0 -- -- 86
2021-02-05 07:00:00 7.6 3 Sudeste 5 Sur 0 -- -- 83
2021-02-05 06:00:00 9.8 4 Este 17 Sur 0 -- -- 74
2021-02-05 05:00:00 9 4 Sudoeste 15 Sudoeste 0 -- -- 79
2021-02-05 04:00:00 10.6 4 Sudoeste 13 Norte 0 -- -- 72
2021-02-05 03:00:00 13.2 5 Nordeste 22 Nordeste 0 -- -- 56
2021-02-05 02:00:00 10.5 4 Sudeste 22 Nordeste 0 -- -- 63
2021-02-05 01:00:00 6.9 5 Nordeste 14 Noroeste 0 -- -- 81
2021-02-05 00:00:00 6.2 5 Nordeste 17 Este 0 -- -- 89
2021-02-04 23:00:00 5.7 4 Sudeste 15 Nordeste 0 -- -- 93
2021-02-04 22:00:00 5.5 4 Sur 13 Sur 0 -- -- 93
2021-02-04 21:00:00 5.9 3 Sudeste 9 Noroeste 0 -- -- 92
2021-02-04 20:00:00 6.8 2 Sudeste 6 Noroeste 0 -- -- 91
2021-02-04 19:00:00 8.3 3 Sur 8 Oeste 0 -- -- 87
2021-02-04 18:00:00 9.7 2 Este 6 Sudoeste 0 -- -- 84
2021-02-04 17:00:00 11.6 2 Este 7 Norte 0 -- -- 77
2021-02-04 16:00:00 13.8 4 Norte 12 Nordeste 0 -- -- 66
2021-02-04 15:00:00 15.5 5 Nordeste 10 Norte 0 -- -- 58
2021-02-04 14:00:00 15.6 0 Calma 5 Norte 0 -- -- 53
2021-02-04 13:00:00 13.5 0 Calma 8 Sudeste 0 -- -- 63
2021-02-04 12:00:00 10.8 0 Calma 7 Nordeste 0 -- -- 77
2021-02-04 11:00:00 6.9 3 Nordeste 6 Norte 0 -- -- 90
2021-02-04 10:00:00 6.5 3 Noroeste 8 Oeste 0 -- -- 89
2021-02-04 09:00:00 5.1 2 Sudeste 9 Noroeste 0 -- -- 93
2021-02-04 08:00:00 5 3 Nordeste 10 Oeste 0 -- -- 89
2021-02-04 07:00:00 5.5 4 Nordeste 10 Nordeste 0 -- -- 88
2021-02-04 06:00:00 7.4 0 Calma 25 Sudoeste 0 -- -- 79
2021-02-04 05:00:00 10.1 19 Sudoeste 34 Sudoeste 0 -- -- 63
2021-02-04 04:00:00 10.5 22 Sudoeste 33 Sudoeste 0 -- -- 63
2021-02-04 03:00:00 9.9 19 Sudoeste 29 Sudoeste 0 -- -- 66
2021-02-04 02:00:00 10.2 16 Sur 32 Sudoeste 0 -- -- 66
2021-02-04 01:00:00 5.7 2 Sur 8 Oeste 0 -- -- 94
2021-02-04 00:00:00 6.4 0 Calma 10 Sur 0 -- -- 92
2021-02-03 23:00:00 7.7 5 Sudoeste 16 Sudoeste 0 -- -- 88
2021-02-03 22:00:00 8.1 2 Sudeste 19 Sudoeste 0 -- -- 89
2021-02-03 21:00:00 7.7 9 Sudoeste 12 Sudoeste 0 -- -- 92
2021-02-03 20:00:00 8.9 0 Calma 3 Sudeste 0 -- -- 92
2021-02-03 19:00:00 10 0 Calma 5 Sudeste 0 -- -- 86
2021-02-03 18:00:00 11.7 3 Nordeste 19 Norte 0 -- -- 77
2021-02-03 17:00:00 13.1 8 Norte 27 Norte 0 -- -- 70
2021-02-03 16:00:00 15.3 13 Norte 28 Norte 0 -- -- 61
2021-02-03 15:00:00 17.1 15 Norte 25 Norte 0 -- -- 53
2021-02-03 14:00:00 18.2 6 Nordeste 12 Nordeste 0 -- -- 46
2021-02-03 13:00:00 16.4 3 Nordeste 10 Nordeste 0 -- -- 52
2021-02-03 12:00:00 11.9 2 Este 8 Sur 0 -- -- 67
2021-02-03 11:00:00 6.9 3 Este 11 Este 0 -- -- 84
2021-02-03 10:00:00 4.9 3 Nordeste 8 Noroeste 0 -- -- 91
2021-02-03 09:00:00 4.9 4 Sur 9 Sudoeste 0 -- -- 88
2021-02-03 08:00:00 5.1 3 Sur 12 Oeste 0 -- -- 87
2021-02-03 07:00:00 5.7 4 Sudoeste 11 Oeste 0 -- -- 84
2021-02-03 06:00:00 6.3 4 Nordeste 14 Sudoeste 0 -- -- 81
2021-02-03 05:00:00 10.8 10 Sudoeste 41 Sudoeste 0 -- -- 57
2021-02-03 04:00:00 9.4 22 Sur 40 Sur 0 -- -- 59
2021-02-03 03:00:00 6.3 0 Calma 9 Oeste 0 -- -- 89
2021-02-03 02:00:00 8.8 3 Sudeste 31 Sudoeste 0 -- -- 77
2021-02-03 01:00:00 11 11 Sudoeste 44 Sudoeste 0 -- -- 69
2021-02-03 00:00:00 13.4 24 Sudoeste 46 Sudoeste 0 -- -- 58
2021-02-02 23:00:00 5.6 4 Sur 9 Oeste 0 -- -- 96
2021-02-02 22:00:00 6.7 4 Sur 18 Sudoeste 0 -- -- 92
2021-02-02 21:00:00 7.4 14 Sudoeste 19 Sudoeste 0 -- -- 93
2021-02-02 20:00:00 8.1 8 Sudoeste 16 Sudoeste 0 -- -- 93
2021-02-02 19:00:00 8.7 6 Sudoeste 16 Sudoeste 0 -- -- 91
2021-02-02 18:00:00 10.2 6 Sur 17 Sudoeste 0 -- -- 86
2021-02-02 17:00:00 11.5 3 Sur 13 Sudoeste 0 -- -- 85
2021-02-02 16:00:00 12.8 10 Sur 17 Sur 0 -- -- 73
2021-02-02 15:00:00 15.6 6 Sur 10 Sudoeste 0 -- -- 62
2021-02-02 14:00:00 15.5 0 Calma 7 Nordeste 0 -- -- 68
2021-02-02 13:00:00 12.3 4 Nordeste 6 Nordeste 0 -- -- 82
2021-02-02 12:00:00 8.5 0 Calma 6 Sur 0 -- -- 99
2021-02-02 11:00:00 4.6 2 Nordeste 5 Norte 0 -- -- 100
2021-02-02 10:00:00 4.4 3 Nordeste 8 Sudoeste 0 -- -- 100
2021-02-02 09:00:00 5 4 Este 17 Sudoeste 0 -- -- 99
2021-02-02 08:00:00 5.2 10 Sur 14 Sur 0 -- -- 98
2021-02-02 07:00:00 5.8 6 Sur 17 Sudoeste 0 -- -- 98
2021-02-02 06:00:00 6.3 8 Sudoeste 18 Sudoeste 0 -- -- 98
2021-02-02 05:00:00 6.7 9 Sudoeste 19 Sudoeste 0.2 -- -- 100
2021-02-02 04:00:00 7.2 4 Sudoeste 5 Sudoeste 0.6 -- -- 99
2021-02-02 03:00:00 7.5 3 Sudeste 18 Sudoeste 0.4 -- -- 99
2021-02-02 02:00:00 7.5 12 Sudoeste 18 Sudoeste 0.2 -- -- 99
2021-02-02 01:00:00 7.4 8 Sudoeste 19 Sudoeste 0 -- -- 98
2021-02-02 00:00:00 7 9 Sudoeste 16 Sudoeste 0.2 -- -- 100
2021-02-01 23:00:00 7 3 Sur 9 Sudoeste 0.2 -- -- 100
2021-02-01 22:00:00 7 3 Oeste 13 Sudoeste 0 -- -- 100
2021-02-01 21:00:00 7.2 0 Calma 11 Sudoeste 1 -- -- 99
2021-02-01 20:00:00 7.3 3 Sur 14 Sudoeste 0.6 -- -- 99
2021-02-01 19:00:00 7.4 3 Oeste 7 Este 1.2 -- -- 99
2021-02-01 18:00:00 7.8 3 Sur 6 Sudeste 2 -- -- 98
2021-02-01 17:00:00 8.3 4 Sur 13 Sudoeste 0.2 -- -- 95
2021-02-01 16:00:00 8.4 5 Sudoeste 12 Sur 0.2 -- -- 95
2021-02-01 15:00:00 8.8 4 Sur 17 Sur 0 -- -- 90
2021-02-01 14:00:00 9.3 4 Sur 9 Este 0 -- -- 89
2021-02-01 13:00:00 7.8 5 Sur 9 Oeste 0.2 -- -- 98
2021-02-01 12:00:00 6.3 3 Sur 6 Oeste 0.6 -- -- 99
2021-02-01 11:00:00 5.8 4 Sur 7 Sur 0.8 -- -- 100
2021-02-01 10:00:00 5.2 2 Oeste 10 Sudoeste 1 -- -- 100
2021-02-01 09:00:00 5 0 Calma 9 Sudoeste 0.4 -- -- 100
2021-02-01 08:00:00 4.9 3 Sur 5 Sur 0.6 -- -- 100
2021-02-01 07:00:00 4.8 2 Norte 6 Sur 0.8 -- -- 99
2021-02-01 06:00:00 5 3 Norte 13 Sudoeste 0.8 -- -- 99
2021-02-01 05:00:00 5.1 4 Sudoeste 11 Sudoeste 0.8 -- -- 98
2021-02-01 04:00:00 5.2 3 Oeste 12 Sudoeste 1.2 -- -- 98
2021-02-01 03:00:00 5.5 5 Sudoeste 19 Sudoeste 2.2 -- -- 97
2021-02-01 02:00:00 5.9 14 Sudoeste 22 Sudoeste 1 -- -- 97
2021-02-01 01:00:00 6 3 Sur 18 Sudoeste 3 -- -- 97
2021-02-01 00:00:00 6.1 3 Nordeste 31 Sudeste 1.6 -- -- 96